createdAt,value
2018-07-15T00:02:18.607Z,15.70
2018-07-15T00:04:46.981Z,15.60
2018-07-15T00:07:15.234Z,15.50
2018-07-15T00:09:43.667Z,15.50
2018-07-15T00:12:11.937Z,15.50
2018-07-15T00:14:40.212Z,15.40
2018-07-15T00:17:08.458Z,15.30
2018-07-15T00:19:36.827Z,15.20
2018-07-15T00:22:05.047Z,15.20
2018-07-15T00:24:33.285Z,15.20
2018-07-15T00:27:01.507Z,15.20
2018-07-15T00:29:30.018Z,15.10
2018-07-15T00:31:58.325Z,15.00
2018-07-15T00:34:26.510Z,15.00
2018-07-15T00:36:54.678Z,15.00
2018-07-15T00:39:22.923Z,15.00
2018-07-15T00:41:51.107Z,15.00
2018-07-15T00:44:19.347Z,14.90
2018-07-15T00:46:47.549Z,14.90
2018-07-15T00:49:15.778Z,14.80
2018-07-15T00:51:44.118Z,14.80
2018-07-15T00:54:12.630Z,14.70
2018-07-15T00:56:40.864Z,14.60
2018-07-15T00:59:09.056Z,14.60
2018-07-15T01:01:37.266Z,14.60
2018-07-15T01:04:05.870Z,14.60
2018-07-15T01:06:34.174Z,14.60
2018-07-15T01:09:02.482Z,14.50
2018-07-15T01:11:30.718Z,14.40
2018-07-15T01:13:59.138Z,14.40
2018-07-15T01:16:27.327Z,14.40
2018-07-15T01:18:55.848Z,14.40
2018-07-15T01:21:24.026Z,14.40
2018-07-15T01:23:52.245Z,14.40
2018-07-15T01:26:20.514Z,14.40
2018-07-15T01:28:48.797Z,14.40
2018-07-15T01:33:45.005Z,14.30
2018-07-15T01:36:13.190Z,14.20
2018-07-15T01:38:41.839Z,14.10
2018-07-15T01:41:10.159Z,14.10
2018-07-15T01:43:38.645Z,14.20
2018-07-15T01:46:07.094Z,14.20
2018-07-15T01:51:03.181Z,14.10
2018-07-15T01:53:31.425Z,14.00
2018-07-15T01:55:59.694Z,14.00
2018-07-15T01:58:27.868Z,14.10
2018-07-15T02:00:56.089Z,14.10
2018-07-15T02:03:24.250Z,14.00
2018-07-15T02:05:52.599Z,13.90
2018-07-15T02:08:20.866Z,13.90
2018-07-15T02:10:49.226Z,13.90
2018-07-15T02:13:17.612Z,13.90
2018-07-15T02:15:46.097Z,14.00
2018-07-15T02:18:14.266Z,14.00
2018-07-15T02:20:42.502Z,13.90
2018-07-15T02:23:10.681Z,13.80
2018-07-15T02:25:38.852Z,13.80
2018-07-15T02:28:07.051Z,13.70
2018-07-15T02:30:35.382Z,13.70
2018-07-15T02:33:03.719Z,13.70
2018-07-15T02:35:32.018Z,13.80
2018-07-15T02:38:00.386Z,13.70
2018-07-15T02:40:28.842Z,13.60
2018-07-15T02:42:57.174Z,13.60
2018-07-15T02:45:25.371Z,13.50
2018-07-15T02:47:53.682Z,13.50
2018-07-15T02:50:21.887Z,13.50
2018-07-15T02:52:50.074Z,13.40
2018-07-15T02:55:18.319Z,13.40
2018-07-15T02:57:46.513Z,13.50
2018-07-15T03:00:14.689Z,13.50
2018-07-15T03:02:42.849Z,13.50
2018-07-15T03:05:11.121Z,13.40
2018-07-15T03:10:08.482Z,13.30
2018-07-15T03:12:36.670Z,13.30
2018-07-15T03:15:04.999Z,13.20
2018-07-15T03:17:33.196Z,13.30
2018-07-15T03:20:01.515Z,13.30
2018-07-15T03:22:29.679Z,13.20
2018-07-15T03:24:57.943Z,13.20
2018-07-15T03:27:26.238Z,13.20
2018-07-15T03:29:54.453Z,13.20
2018-07-15T03:32:22.666Z,13.20
2018-07-15T03:34:50.842Z,13.30
2018-07-15T03:37:19.024Z,13.30
2018-07-15T03:39:47.359Z,13.30
2018-07-15T03:42:15.502Z,13.30
2018-07-15T03:44:43.735Z,13.30
2018-07-15T03:47:12.087Z,13.30
2018-07-15T03:49:40.289Z,13.30
2018-07-15T03:52:08.521Z,13.20
2018-07-15T03:54:36.729Z,13.20
2018-07-15T03:57:05.211Z,13.10
2018-07-15T03:59:33.373Z,13.10
2018-07-15T04:02:01.570Z,13.10
2018-07-15T04:04:29.740Z,13.10
2018-07-15T04:06:58.142Z,13.20
2018-07-15T04:09:26.310Z,13.20
2018-07-15T04:11:54.594Z,13.20
2018-07-15T04:16:50.731Z,13.20
2018-07-15T04:19:19.012Z,13.30
2018-07-15T04:21:47.359Z,13.30
2018-07-15T04:24:15.819Z,13.50
2018-07-15T04:26:44.025Z,14.30
2018-07-15T04:29:12.277Z,15.60
2018-07-15T04:31:40.495Z,16.70
2018-07-15T04:34:08.662Z,18.60
2018-07-15T04:36:36.920Z,19.10
2018-07-15T04:39:06.463Z,19.70
2018-07-15T04:41:34.758Z,20.50
2018-07-15T04:44:03.346Z,21.60
2018-07-15T04:46:31.678Z,22.40
2018-07-15T04:48:59.982Z,23.10
2018-07-15T04:51:28.166Z,23.40
2018-07-15T04:53:56.355Z,23.40
2018-07-15T04:56:26.655Z,25.30
2018-07-15T04:58:54.861Z,25.30
2018-07-15T05:01:23.273Z,26.20
2018-07-15T05:03:51.450Z,26.80
2018-07-15T05:06:19.785Z,27.70
2018-07-15T05:08:48.016Z,27.10
2018-07-15T05:11:16.336Z,27.20
2018-07-15T05:13:44.485Z,27.70
2018-07-15T05:16:12.694Z,28.90
2018-07-15T05:18:40.884Z,29.70
2018-07-15T05:21:09.122Z,29.50
2018-07-15T05:23:37.403Z,29.80
2018-07-15T05:26:05.802Z,30.40
2018-07-15T05:28:34.041Z,31.10
2018-07-15T05:31:02.188Z,29.50
2018-07-15T05:33:30.467Z,28.20
2018-07-15T05:35:58.698Z,27.10
2018-07-15T05:38:26.980Z,25.90
2018-07-15T05:40:55.346Z,24.70
2018-07-15T05:43:23.640Z,23.70
2018-07-15T05:45:51.846Z,22.90
2018-07-15T05:48:20.086Z,21.80
2018-07-15T05:50:48.362Z,21.20
2018-07-15T05:53:16.556Z,20.50
2018-07-15T05:55:44.889Z,20.20
2018-07-15T05:58:13.396Z,19.70
2018-07-15T06:00:41.674Z,19.40
2018-07-15T06:03:09.902Z,19.30
2018-07-15T06:05:38.104Z,19.10
2018-07-15T06:08:06.402Z,18.80
2018-07-15T06:10:34.699Z,18.70
2018-07-15T06:13:03.067Z,18.50
2018-07-15T06:15:31.235Z,18.40
2018-07-15T06:17:59.475Z,18.40
2018-07-15T06:20:27.712Z,18.30
2018-07-15T06:22:56.057Z,18.30
2018-07-15T06:25:24.442Z,18.30
2018-07-15T06:27:52.721Z,18.40
2018-07-15T06:30:20.991Z,18.50
2018-07-15T06:32:49.200Z,18.60
2018-07-15T06:35:17.517Z,18.60
2018-07-15T06:37:45.922Z,18.70
2018-07-15T06:40:14.242Z,18.70
2018-07-15T06:42:42.492Z,18.80
2018-07-15T06:45:10.739Z,18.80
2018-07-15T06:47:39.086Z,19.00
2018-07-15T06:50:07.263Z,19.20
2018-07-15T06:52:35.573Z,19.10
2018-07-15T06:55:04.058Z,19.10
2018-07-15T06:57:32.251Z,19.20
2018-07-15T07:00:00.620Z,19.30
2018-07-15T07:02:28.811Z,19.20
2018-07-15T07:04:57.150Z,19.30
2018-07-15T07:07:25.717Z,19.50
2018-07-15T07:09:53.866Z,19.50
2018-07-15T07:12:22.420Z,19.70
2018-07-15T07:14:50.649Z,19.80
2018-07-15T07:17:18.966Z,20.00
2018-07-15T07:19:47.306Z,20.20
2018-07-15T07:22:15.665Z,20.30
2018-07-15T07:24:43.875Z,20.50
2018-07-15T07:27:12.117Z,20.70
2018-07-15T07:29:40.462Z,20.80
2018-07-15T07:32:08.703Z,20.90
2018-07-15T07:34:36.972Z,20.80
2018-07-15T07:37:05.372Z,20.90
2018-07-15T07:39:33.726Z,21.00
2018-07-15T07:42:02.106Z,21.10
2018-07-15T07:44:30.383Z,21.00
2018-07-15T07:46:58.852Z,21.10
2018-07-15T07:49:27.052Z,21.20
2018-07-15T07:51:55.292Z,21.30
2018-07-15T07:54:23.654Z,21.20
2018-07-15T07:56:52.269Z,21.20
2018-07-15T07:59:20.591Z,21.20
2018-07-15T08:01:48.892Z,21.40
2018-07-15T08:04:17.081Z,21.40
2018-07-15T08:06:45.313Z,21.40
2018-07-15T08:09:13.561Z,21.60
2018-07-15T08:11:41.923Z,21.50
2018-07-15T08:14:10.131Z,21.50
2018-07-15T08:16:38.342Z,21.60
2018-07-15T08:19:06.947Z,21.70
2018-07-15T08:21:35.235Z,21.80
2018-07-15T08:24:03.641Z,21.90
2018-07-15T08:26:31.963Z,21.90
2018-07-15T08:29:00.451Z,22.00
2018-07-15T08:31:28.707Z,22.10
2018-07-15T08:33:56.938Z,22.00
2018-07-15T08:36:25.197Z,22.00
2018-07-15T08:38:53.389Z,22.00
2018-07-15T08:41:21.655Z,22.20
2018-07-15T08:43:50.044Z,22.10
2018-07-15T08:46:18.295Z,21.90
2018-07-15T08:48:46.694Z,22.00
2018-07-15T08:51:15.160Z,22.20
2018-07-15T08:53:43.414Z,22.10
2018-07-15T08:56:11.620Z,22.20
2018-07-15T08:58:40.014Z,22.20
2018-07-15T09:01:08.587Z,22.30
2018-07-15T09:03:36.974Z,22.40
2018-07-15T09:06:06.203Z,22.40
2018-07-15T09:08:34.586Z,22.40
2018-07-15T09:11:03.054Z,22.50
2018-07-15T09:13:31.323Z,22.60
2018-07-15T09:15:59.564Z,22.80
2018-07-15T09:18:27.847Z,22.80
2018-07-15T09:20:56.207Z,22.90
2018-07-15T09:23:24.503Z,22.90
2018-07-15T09:25:52.729Z,22.90
2018-07-15T09:28:21.040Z,22.80
2018-07-15T09:30:49.413Z,22.80
2018-07-15T09:33:17.843Z,22.70
2018-07-15T09:35:46.136Z,22.80
2018-07-15T09:38:14.388Z,22.80
2018-07-15T09:43:10.594Z,22.90
2018-07-15T09:45:38.868Z,23.00
2018-07-15T09:48:07.109Z,23.00
2018-07-15T09:50:35.419Z,23.00
2018-07-15T09:53:03.696Z,23.10
2018-07-15T09:55:31.983Z,23.20
2018-07-15T09:58:00.255Z,23.30
2018-07-15T10:00:34.057Z,23.30
2018-07-15T10:03:02.341Z,23.30
2018-07-15T10:05:30.721Z,23.30
2018-07-15T10:07:59.004Z,23.20
2018-07-15T10:10:27.239Z,23.10
2018-07-15T10:12:55.638Z,23.20
2018-07-15T10:15:24.022Z,23.40
2018-07-15T10:17:52.326Z,23.40
2018-07-15T10:20:20.637Z,23.40
2018-07-15T10:22:49.051Z,23.50
2018-07-15T10:25:17.363Z,23.60
2018-07-15T10:27:45.629Z,23.60
2018-07-15T10:30:13.895Z,23.50
2018-07-15T10:32:42.102Z,23.60
2018-07-15T10:35:10.329Z,23.60
2018-07-15T10:37:38.582Z,23.60
2018-07-15T10:40:06.847Z,23.80
2018-07-15T10:42:35.063Z,23.90
2018-07-15T10:45:03.350Z,24.00
2018-07-15T10:47:31.860Z,24.00
2018-07-15T10:50:00.066Z,24.20
2018-07-15T10:52:28.506Z,24.30
2018-07-15T10:54:56.915Z,24.20
2018-07-15T10:57:25.317Z,24.10
2018-07-15T10:59:53.831Z,24.10
2018-07-15T11:02:22.501Z,24.20
2018-07-15T11:04:50.930Z,24.30
2018-07-15T11:07:19.175Z,24.30
2018-07-15T11:09:47.400Z,24.40
2018-07-15T11:12:15.630Z,24.40
2018-07-15T11:14:43.936Z,24.50
2018-07-15T11:17:12.196Z,24.40
2018-07-15T11:19:40.524Z,24.50
2018-07-15T11:22:08.825Z,24.50
2018-07-15T11:24:37.052Z,24.50
2018-07-15T11:27:05.464Z,24.50
2018-07-15T11:29:34.029Z,24.50
2018-07-15T11:32:02.334Z,24.50
2018-07-15T11:34:30.593Z,24.50
2018-07-15T11:36:59.087Z,24.30
2018-07-15T11:39:27.430Z,24.40
2018-07-15T11:41:55.699Z,24.60
2018-07-15T11:44:23.909Z,24.60
2018-07-15T11:46:52.196Z,24.70
2018-07-15T11:51:48.562Z,24.80
2018-07-15T11:54:16.918Z,25.00
2018-07-15T11:56:45.286Z,25.00
2018-07-15T11:59:13.516Z,25.00
2018-07-15T12:01:41.922Z,24.90
2018-07-15T12:04:10.152Z,25.00
2018-07-15T12:06:38.398Z,24.90
2018-07-15T12:09:07.019Z,25.00
2018-07-15T12:11:35.252Z,25.00
2018-07-15T12:14:03.754Z,25.00
2018-07-15T12:16:32.227Z,25.10
2018-07-15T12:19:00.621Z,25.20
2018-07-15T12:21:29.048Z,25.30
2018-07-15T12:23:57.371Z,25.30
2018-07-15T12:26:25.818Z,25.40
2018-07-15T12:28:54.208Z,25.50
2018-07-15T12:31:22.522Z,25.50
2018-07-15T12:33:50.723Z,25.60
2018-07-15T12:36:19.170Z,25.70
2018-07-15T12:38:47.467Z,25.70
2018-07-15T12:41:15.793Z,25.70
2018-07-15T12:43:44.099Z,25.80
2018-07-15T12:46:12.552Z,25.90
2018-07-15T12:48:41.120Z,25.90
2018-07-15T12:51:09.622Z,25.90
2018-07-15T12:53:37.887Z,26.00
2018-07-15T12:56:06.169Z,25.70
2018-07-15T12:58:34.450Z,25.70
2018-07-15T13:01:02.700Z,25.80
2018-07-15T13:03:30.935Z,25.80
2018-07-15T13:05:59.247Z,25.90
2018-07-15T13:08:27.671Z,26.00
2018-07-15T13:10:56.216Z,26.10
2018-07-15T13:13:24.893Z,26.10
2018-07-15T13:15:53.349Z,26.20
2018-07-15T13:18:21.571Z,26.30
2018-07-15T13:20:50.019Z,26.10
2018-07-15T13:23:18.429Z,26.10
2018-07-15T13:25:46.682Z,26.10
2018-07-15T13:28:15.179Z,26.10
2018-07-15T13:30:43.350Z,26.00
2018-07-15T13:33:11.670Z,25.90
2018-07-15T13:35:40.048Z,25.80
2018-07-15T13:38:08.473Z,25.70
2018-07-15T13:40:36.655Z,25.60
2018-07-15T13:43:04.899Z,25.90
2018-07-15T13:45:33.150Z,26.10
2018-07-15T13:48:01.671Z,26.20
2018-07-15T13:50:31.518Z,26.30
2018-07-15T13:52:59.815Z,26.30
2018-07-15T13:55:28.075Z,26.20
2018-07-15T13:57:56.484Z,26.00
2018-07-15T14:00:24.896Z,26.20
2018-07-15T14:02:53.295Z,26.20
2018-07-15T14:05:21.617Z,26.10
2018-07-15T14:07:49.948Z,26.10
2018-07-15T14:10:18.500Z,26.10
2018-07-15T14:12:46.886Z,26.10
2018-07-15T14:15:15.236Z,26.10
2018-07-15T14:17:43.465Z,26.20
2018-07-15T14:20:11.709Z,26.30
2018-07-15T14:22:39.942Z,26.20
2018-07-15T14:25:08.153Z,26.20
2018-07-15T14:27:36.445Z,26.20
2018-07-15T14:30:05.141Z,26.20
2018-07-15T14:32:33.618Z,26.30
2018-07-15T14:35:01.840Z,26.40
2018-07-15T14:37:30.120Z,26.60
2018-07-15T14:39:58.338Z,26.50
2018-07-15T14:42:26.736Z,26.50
2018-07-15T14:44:55.018Z,26.40
2018-07-15T14:47:23.287Z,26.30
2018-07-15T14:49:51.511Z,26.10
2018-07-15T14:52:20.011Z,26.20
2018-07-15T14:54:48.314Z,26.20
2018-07-15T14:57:16.524Z,26.30
2018-07-15T14:59:44.784Z,26.30
2018-07-15T15:02:13.027Z,26.40
2018-07-15T15:04:41.301Z,26.50
2018-07-15T15:07:09.555Z,26.70
2018-07-15T15:09:37.762Z,26.60
2018-07-15T15:12:06.110Z,26.70
2018-07-15T15:14:34.341Z,26.60
2018-07-15T15:19:30.483Z,26.50
2018-07-15T15:24:26.701Z,26.60
2018-07-15T15:26:55.103Z,26.70
2018-07-15T15:29:23.400Z,26.80
2018-07-15T15:31:51.611Z,26.70
2018-07-15T15:34:19.911Z,26.70
2018-07-15T15:36:48.348Z,26.70
2018-07-15T15:39:16.918Z,26.80
2018-07-15T15:41:45.227Z,26.90
2018-07-15T15:44:13.533Z,26.80
2018-07-15T15:46:42.016Z,26.70
2018-07-15T15:49:10.395Z,26.60
2018-07-15T15:51:38.718Z,26.60
2018-07-15T15:54:07.059Z,26.60
2018-07-15T15:56:35.244Z,26.80
2018-07-15T15:59:03.503Z,26.80
2018-07-15T16:01:31.837Z,26.60
2018-07-15T16:04:00.128Z,26.50
2018-07-15T16:06:28.382Z,26.50
2018-07-15T16:08:56.772Z,26.50
2018-07-15T16:11:24.984Z,26.50
2018-07-15T16:13:53.228Z,26.50
2018-07-15T16:16:21.563Z,26.70
2018-07-15T16:18:50.517Z,26.80
2018-07-15T16:21:18.958Z,26.70
2018-07-15T16:23:47.534Z,26.70
2018-07-15T16:26:16.015Z,26.80
2018-07-15T16:28:44.387Z,26.80
2018-07-15T16:31:12.639Z,26.80
2018-07-15T16:33:40.907Z,26.50
2018-07-15T16:36:09.146Z,26.60
2018-07-15T16:38:37.367Z,26.60
2018-07-15T16:41:05.914Z,26.50
2018-07-15T16:43:34.168Z,26.50
2018-07-15T16:46:02.411Z,26.60
2018-07-15T16:48:30.699Z,26.50
2018-07-15T16:50:59.106Z,26.60
2018-07-15T16:53:27.473Z,26.70
2018-07-15T16:55:56.074Z,26.70
2018-07-15T16:58:24.381Z,26.70
2018-07-15T17:00:52.723Z,26.70
2018-07-15T17:03:21.058Z,26.60
2018-07-15T17:05:49.285Z,26.70
2018-07-15T17:08:17.535Z,26.70
2018-07-15T17:10:45.858Z,26.70
2018-07-15T17:13:14.138Z,26.60
2018-07-15T17:15:42.455Z,26.70
2018-07-15T17:18:10.927Z,26.70
2018-07-15T17:20:39.323Z,26.70
2018-07-15T17:23:07.698Z,26.50
2018-07-15T17:25:35.901Z,26.50
2018-07-15T17:28:04.346Z,26.50
2018-07-15T17:30:32.673Z,26.50
2018-07-15T17:33:00.932Z,26.40
2018-07-15T17:35:29.336Z,26.60
2018-07-15T17:37:57.693Z,26.50
2018-07-15T17:40:26.214Z,26.40
2018-07-15T17:42:54.731Z,26.40
2018-07-15T17:45:23.054Z,26.30
2018-07-15T17:47:51.597Z,26.20
2018-07-15T17:50:20.030Z,26.10
2018-07-15T17:52:48.465Z,26.10
2018-07-15T17:55:16.794Z,26.00
2018-07-15T17:57:45.205Z,26.10
2018-07-15T18:00:13.604Z,26.10
2018-07-15T18:02:41.928Z,26.10
2018-07-15T18:05:10.203Z,26.10
2018-07-15T18:07:38.444Z,26.20
2018-07-15T18:10:07.008Z,26.10
2018-07-15T18:12:35.290Z,26.00
2018-07-15T18:15:04.271Z,26.00
2018-07-15T18:17:32.684Z,26.00
2018-07-15T18:20:01.714Z,25.90
2018-07-15T18:22:29.968Z,25.70
2018-07-15T18:24:58.462Z,25.60
2018-07-15T18:27:27.163Z,25.60
2018-07-15T18:29:55.728Z,25.60
2018-07-15T18:32:24.461Z,25.50
2018-07-15T18:34:53.165Z,25.40
2018-07-15T18:37:21.523Z,25.30
2018-07-15T18:39:51.289Z,25.30
2018-07-15T18:42:19.943Z,25.20
2018-07-15T18:44:48.298Z,25.00
2018-07-15T18:47:16.820Z,25.00
2018-07-15T18:49:45.296Z,24.90
2018-07-15T18:52:13.727Z,24.80
2018-07-15T18:54:42.304Z,24.80
2018-07-15T18:57:10.909Z,24.70
2018-07-15T18:59:40.715Z,24.60
2018-07-15T19:02:09.641Z,24.50
2018-07-15T19:04:38.187Z,24.50
2018-07-15T19:07:06.776Z,24.40
2018-07-15T19:09:35.942Z,24.40
2018-07-15T19:12:04.564Z,24.30
2018-07-15T19:14:32.860Z,24.10
2018-07-15T19:17:01.168Z,24.00
2018-07-15T19:19:29.467Z,23.90
2018-07-15T19:21:57.812Z,23.80
2018-07-15T19:24:26.135Z,23.70
2018-07-15T19:26:54.786Z,23.70
2018-07-15T19:29:23.067Z,23.70
2018-07-15T19:31:51.530Z,23.50
2018-07-15T19:34:19.959Z,23.40
2018-07-15T19:36:48.477Z,23.30
2018-07-15T19:39:16.730Z,23.20
2018-07-15T19:41:45.111Z,23.10
2018-07-15T19:44:13.339Z,23.10
2018-07-15T19:46:42.061Z,23.00
2018-07-15T19:49:10.453Z,22.90
2018-07-15T19:51:38.854Z,23.00
2018-07-15T19:54:07.255Z,22.80
2018-07-15T19:56:35.851Z,22.60
2018-07-15T19:59:04.255Z,22.50
2018-07-15T20:01:32.750Z,22.40
2018-07-15T20:04:01.259Z,22.40
2018-07-15T20:06:29.552Z,22.20
2018-07-15T20:08:57.867Z,22.00
2018-07-15T20:11:26.239Z,21.90
2018-07-15T20:13:54.652Z,21.80
2018-07-15T20:16:23.134Z,21.70
2018-07-15T20:18:51.500Z,21.40
2018-07-15T20:21:19.928Z,21.40
2018-07-15T20:23:48.446Z,21.30
2018-07-15T20:26:16.639Z,21.30
2018-07-15T20:28:45.119Z,21.30
2018-07-15T20:31:13.751Z,21.30
2018-07-15T20:33:41.995Z,21.30
2018-07-15T20:36:10.447Z,21.20
2018-07-15T20:38:38.931Z,21.00
2018-07-15T20:41:07.539Z,20.90
2018-07-15T20:43:35.945Z,20.80
2018-07-15T20:46:04.356Z,20.60
2018-07-15T20:48:33.279Z,20.50
2018-07-15T20:51:01.732Z,20.30
2018-07-15T20:53:30.012Z,20.10
2018-07-15T20:55:58.269Z,20.00
2018-07-15T20:58:26.604Z,19.80
2018-07-15T21:00:54.853Z,19.70
2018-07-15T21:03:23.112Z,19.50
2018-07-15T21:05:51.305Z,19.40
2018-07-15T21:08:19.488Z,19.30
2018-07-15T21:10:47.710Z,19.30
2018-07-15T21:13:15.828Z,19.40
2018-07-15T21:15:44.261Z,19.30
2018-07-15T21:18:12.521Z,19.30
2018-07-15T21:20:40.840Z,19.20
2018-07-15T21:23:09.441Z,19.00
2018-07-15T21:25:37.556Z,19.00
2018-07-15T21:28:06.186Z,18.80
2018-07-15T21:30:34.399Z,18.80
2018-07-15T21:33:02.719Z,18.70
2018-07-15T21:35:30.903Z,18.50
2018-07-15T21:37:59.128Z,18.40
2018-07-15T21:40:27.218Z,18.40
2018-07-15T21:42:55.440Z,18.30
2018-07-15T21:45:23.872Z,18.30
2018-07-15T21:47:52.172Z,18.20
2018-07-15T21:50:20.363Z,18.10
2018-07-15T21:52:48.623Z,18.10
2018-07-15T21:55:16.806Z,18.00
2018-07-15T21:57:45.044Z,18.00
2018-07-15T22:00:13.442Z,17.90
2018-07-15T22:02:41.730Z,17.80
2018-07-15T22:05:09.946Z,17.70
2018-07-15T22:07:44.040Z,17.70
2018-07-15T22:12:40.072Z,17.50
2018-07-15T22:15:08.218Z,17.40
2018-07-15T22:17:36.428Z,17.30
2018-07-15T22:20:04.726Z,17.20
2018-07-15T22:22:32.966Z,17.20
2018-07-15T22:25:01.139Z,17.20
2018-07-15T22:27:29.557Z,17.20
2018-07-15T22:29:57.677Z,17.10
2018-07-15T22:32:25.847Z,17.00
2018-07-15T22:34:54.079Z,17.00
2018-07-15T22:37:22.310Z,16.90
2018-07-15T22:39:50.774Z,16.70
2018-07-15T22:42:19.156Z,16.70
2018-07-15T22:44:47.509Z,16.60
2018-07-15T22:47:15.774Z,16.60
2018-07-15T22:49:44.097Z,16.60
2018-07-15T22:52:12.332Z,16.70
2018-07-15T22:54:40.480Z,16.70
2018-07-15T22:57:08.610Z,16.70
2018-07-15T22:59:36.851Z,16.60
2018-07-15T23:02:05.008Z,16.40
2018-07-15T23:05:45.262Z,16.30
2018-07-15T23:08:13.584Z,16.20
2018-07-15T23:10:41.927Z,16.30
2018-07-15T23:13:10.817Z,16.20
2018-07-15T23:15:39.440Z,16.20
2018-07-15T23:18:07.635Z,16.10
2018-07-15T23:20:36.504Z,16.00
2018-07-15T23:23:05.568Z,16.00
2018-07-15T23:25:33.976Z,15.90
2018-07-15T23:28:02.740Z,15.80
2018-07-15T23:30:31.830Z,15.90
2018-07-15T23:33:00.612Z,15.90
2018-07-15T23:35:29.020Z,15.80
2018-07-15T23:37:57.277Z,15.70
2018-07-15T23:40:25.649Z,15.70
2018-07-15T23:42:54.536Z,15.60
2018-07-15T23:45:23.625Z,15.70
2018-07-15T23:47:51.815Z,15.60
2018-07-15T23:50:20.115Z,15.60
2018-07-15T23:52:48.388Z,15.50
2018-07-15T23:55:16.555Z,15.50
2018-07-15T23:57:44.890Z,15.30
